Atalissa, IA

1:32 PM CDT on April 26, 2015 (GMT -0500)
1 1/2 Miles South Of West Branch | | Change Station
CLOSE
Current Station
Personal Weather Station
Location: West Branch, IA
Elevation: 755 ft
Nearby Weather Stations

Elev 755 ft 41.64 °N, 91.36 °W | Updated 1 second ago

Clear
Clear
55.1 °F
Feels Like 55.1 °F
N
2.0
Wind Variable Wind from East
Gusts 11.0 mph

Today
High -- | Low -- °F
--% Chance of Precip.
Yesterday
High -- | Low -- °F
Precip. -- in
6:08 AM 7:56 PM
First Quarter, 57% visible
Pressure 30.05 in
Visibility 10.0 miles
Clouds Clear
Dew Point 35 °F
Humidity 47%
Rainfall 0.00 in
Snow Depth Not available.
UV 10 out of 12
Pollen 10.40 out of 12
Air Quality Not available.
Flu Activity Local Activity
METAR KMUT 261755Z AUTO 07008KT 040V100 10SM CLR 14/M00 A3005 RMK AO2

More Conditions Fewer Conditions

Pressure 30.05 in
Visibility 10.0 miles
Clouds Clear
Dew Point 35 °F
Humidity 47%
Rainfall 0.00 in
Snow Depth Not available.
UV 10 out of 12
Pollen 10.40 out of 12
Air Quality Not available.
Flu Activity Local Activity
METAR KMUT 261755Z AUTO 07008KT 040V100 10SM CLR 14/M00 A3005 RMK AO2

More Conditions Fewer Conditions

The full scope of the disaster following a powerful 7.8-magnitude earthquake in Nepal may not come into view for days, but global charities are already sending emergency aid. Click to see how you can help.

10-Day Weather Forecast

Almanac

Astronomy

Apr. 26, 2015 Rise Set
Actual Time
Civil Twilight
Nautical Twilight
Astronomical Twilight
Moon
Length of Visible Light
Length of Day
Tomorrow will be .
, % of the Moon is Illuminated

Today's Extremes

State Highs State Lows

Community

WunderPhotos

Upload Photos

1,817,083 photos uploaded!

WunderBlogs® & News

Nearby

Air Quality

  Air Quality AQ Index Pollutant
Not available.

Snow Depth

Station Depth Elevation

Earthquake Activity

City Distance Mag. Time & Date
Minimum magnitude displayed is 2.5.

Coastal Water Temperatures

Place Temperature

Stations

Nearby Weather Stations

Station Location Temp. Windchill Dew Point Humidity Wind Precip. Elev Updated Type